Saskatoon John G. Diefenbaker International Airport
CYXE : now visible

Airfield :











YOU CAN JOIN US ON...

 
LOGIN :

Register | Disclaimer

   EN    FR    IT 

 









Legend :    VFR   Marginal VFR   IFR   Intensive IFR   Very Intensive IFR
Visi :
Ceiling :
>= 8 km
>= 3000ft
5 to 8 km
1000 to 3000 ft
1500m to 5 km
500 to 1000 ft
800 to 1500m
200 to 500 ft
< 800m
< 200 ft
Symbols :   Thunderstorms  Fog  Heavy snow  Heavy precipitations  Wind > 20 kt






- Airport Elevation : 1653 ft
- IATA code : YXE


CYXE - Saskatoon John G. Diefenbaker International

CURRENT METAR :
  • 080200Z 10006KT 15SM BKN130CB OVC250 23/18 A2960 RMK CB5CI3 CB + LTNG DIST NW SLP026 DENSITY ALT 3400FT

EXPIRED METARs :
  • 080100Z 10007KT 15SM SCT130CB OVC250 24/19 A2962 RMK CB4CI4 CB + LTNG DIST N SLP034 DENSITY ALT 3400FT
  • 080042Z 11006KT 15SM VCSH SCT060CB BKN120 OVC250 23/18 A2963 RMK CB3AC2CI3 CB N-E SLP037 DENSITY ALT 3400FT
  • 080027Z 13007G20KT 110V180 12SM FEW060CB SCT120 BKN250 23/13 A2964 RMK CB2AC2CI3 CB E SLP042 DENSITY ALT 3300FT
  • 080018Z 17013G22KT 5SM -TSRA FEW060CB BKN120 BKN250 21/16 A2965 RMK CB2AC3CI2 CB E-S SLP047 DENSITY ALT 3100FT
  • 080012Z 16015G21KT 12SM +TSRA SCT060CB BKN110 BKN300 26/15 A2965 RMK CB3AC3CI1 CB + LTNG E-S SLP043 DENSITY ALT 3700FT

TAF AMD TAF CYXE
Valid from the 08 at 00:00 until the 09 at 00:00 UTC


080013Z 0800/0824 14012G22KT P6SM SCT060 BKN120
TEMPO 0800/0801 VRB15G25KT 5SM TSRA BKN060CB OVC120
FM080300 09010G20KT P6SM BKN060 OVC140
TEMPO 0803/0806 P6SM -SHRA
PROB40 0803/0806 VRB20G30KT 1SM +TSRA FEW015 OVC040CB
FM080600 10012G22KT P6SM -SHRA SCT010 OVC040
TEMPO 0806/0813 5SM -SHRA BR BKN010 OVC040
PROB30 0806/0813 VRB20G30KT 11/2SM +TSRA BR BKN006 OVC030CB
FM081300 20015G25KT P6SM BKN015
TEMPO 0813/0819 P6SM -SHRA
FM081900 18012KT P6SM BKN020
TEMPO 0819/0824 P6SM -SHRA
PROB30 0819/0824 VRB20G30KT 2SM TSRA BR OVC020CB RMK NXT FCST BY 080600Z
CZWG FIR / North America



MET'MAP, your aeronautical weather chart ! - Copyright ORBIFLY December 2007 - Disclaimer

ORBIFLY MET'MAP TEAM :

Programming & Development : Alexandra Zaïnal
Concept & original design : Baudouin d'Aumeries
Assistance for programming : Marc-Olivier Méhu
Technical & hardware support : Manuel Goepfert

Contact : metmap@orbifly.com




SOURCES & CREDITS :

   NOAA       Earth
Advisory